Terminal Aerodrome Forecast
Issued by NWS Grand Forks, ND

Home | Current Version | Previous Version | Text Only | Print | Product List | Glossary Off
Versions: 1 2 3 4 5 6 7 8 9 10 11 12 13 14 15 16 17 18 19 20 21 22 23 24 25 26 27

265
FTUS43 KFGF 251817 CCA
TAFGFK
TAF COR
KGFK 251817Z 2518/2618 13012G18KT P6SM -TSRA BKN025CB
      TEMPO 2518/2520 VRB15G25KT 1SM +TSRA
     FM252000 10010G17KT P6SM -SHRA BKN050
     FM252200 10012KT P6SM -SHRA VCTS BKN040CB
     FM260200 16009KT P6SM -SHRA BKN025
     FM260300 16006KT P6SM BKN025
     FM260800 22008KT P6SM BKN020=

USA.gov is the U.S. government's official web portal to all federal, state and local government web resources and services.